Time;durP1;ratioP1;P1;durP2;ratioP2;P2;SDS_P1;SDS_P2;PMS_P1;PMS_P2;Temp;Humidity;BMP_temperature;BMP_pressure;BME280_temperature;BME280_humidity;BME280_pressure;Samples;Min_cycle;Max_cycle;Signal;HPM_P1;HPM_P2
2022/04/13 00:00:06;;;;;;;6.70;4.23;;;12.50;67.00;;;;;;5018472;28;20460;-69
2022/04/13 00:02:36;;;;;;;7.53;4.17;;;12.50;67.00;;;;;;5018666;28;21295;-69
2022/04/13 00:05:05;;;;;;;9.60;4.03;;;12.50;67.00;;;;;;5023544;28;20459;-70
2022/04/13 00:07:33;;;;;;;7.20;4.70;;;12.50;67.00;;;;;;5021108;28;21393;-69
2022/04/13 00:10:03;;;;;;;8.03;4.37;;;12.50;67.00;;;;;;5019162;28;20475;-69
2022/04/13 00:12:31;;;;;;;8.97;5.40;;;12.50;67.10;;;;;;5018639;28;20484;-69
2022/04/13 00:14:59;;;;;;;7.20;4.70;;;12.50;67.10;;;;;;5023421;28;20523;-69
2022/04/13 00:17:27;;;;;;;8.80;5.50;;;12.50;67.20;;;;;;5019678;28;20510;-69
2022/04/13 00:19:55;;;;;;;9.80;5.57;;;12.40;67.20;;;;;;5017703;28;20456;-69
2022/04/13 00:22:23;;;;;;;10.80;5.47;;;12.40;67.30;;;;;;5018277;28;20484;-69
2022/04/13 00:24:51;;;;;;;8.50;4.70;;;12.40;67.40;;;;;;5021150;28;20468;-69
2022/04/13 00:27:20;;;;;;;8.80;4.80;;;12.30;67.50;;;;;;5018188;28;20965;-69
2022/04/13 00:29:48;;;;;;;6.90;4.37;;;12.30;67.60;;;;;;5016032;28;20452;-69
2022/04/13 00:32:16;;;;;;;8.20;4.97;;;12.30;67.60;;;;;;5011451;28;20554;-68
2022/04/13 00:34:44;;;;;;;8.30;5.17;;;12.30;67.70;;;;;;5019811;28;20484;-69
2022/04/13 00:37:12;;;;;;;6.17;4.10;;;12.30;67.70;;;;;;5021521;28;20513;-69
2022/04/13 00:39:40;;;;;;;7.33;4.70;;;12.20;67.80;;;;;;5019772;28;20469;-69
2022/04/13 00:42:09;;;;;;;11.43;5.13;;;12.20;67.90;;;;;;5017587;28;20888;-69
2022/04/13 00:44:38;;;;;;;9.00;5.27;;;12.20;68.00;;;;;;5013473;28;20548;-69
2022/04/13 00:47:08;;;;;;;8.90;5.10;;;12.20;68.00;;;;;;5012157;28;20492;-68
2022/04/13 00:49:38;;;;;;;7.50;4.30;;;12.20;68.10;;;;;;5012882;28;20457;-68
2022/04/13 00:52:07;;;;;;;9.97;4.33;;;12.20;68.10;;;;;;5019049;28;21059;-68
2022/04/13 00:54:35;;;;;;;7.27;4.57;;;12.20;68.10;;;;;;5019742;28;20487;-69
2022/04/13 00:57:11;;;;;;;7.40;3.60;;;12.20;68.20;;;;;;5017177;28;20548;-69
2022/04/13 00:59:40;;;;;;;9.03;4.30;;;12.20;68.30;;;;;;5018685;28;20961;-68
2022/04/13 01:02:09;;;;;;;9.63;4.30;;;12.20;68.30;;;;;;5015391;28;20483;-69
2022/04/13 01:04:37;;;;;;;5.93;4.00;;;12.10;68.40;;;;;;5017063;28;20452;-69
2022/04/13 01:07:08;;;;;;;6.63;4.20;;;12.20;68.50;;;;;;5018753;28;20459;-68
2022/04/13 01:09:37;;;;;;;6.40;4.30;;;12.10;68.60;;;;;;5017316;28;20452;-69
2022/04/13 01:12:06;;;;;;;7.37;4.77;;;12.20;68.60;;;;;;5024000;28;20479;-69
2022/04/13 01:14:34;;;;;;;8.20;4.50;;;12.10;68.60;;;;;;5021392;28;20476;-68
2022/04/13 01:17:04;;;;;;;7.27;3.97;;;12.10;68.70;;;;;;5019407;28;21025;-68
2022/04/13 01:19:33;;;;;;;6.40;3.93;;;12.10;68.70;;;;;;5015314;28;20534;-68
2022/04/13 01:22:13;;;;;;;7.10;4.80;;;12.10;68.70;;;;;;5020989;28;20991;-68
2022/04/13 01:24:41;;;;;;;9.40;5.03;;;12.10;68.70;;;;;;5014840;28;20822;-68
2022/04/13 01:27:09;;;;;;;7.47;4.40;;;12.00;68.80;;;;;;5022714;28;20459;-69
2022/04/13 01:29:37;;;;;;;8.47;4.13;;;12.00;68.80;;;;;;5024004;28;20455;-69
2022/04/13 01:32:05;;;;;;;7.03;3.60;;;12.00;68.80;;;;;;5016667;28;20537;-69
2022/04/13 01:34:34;;;;;;;8.50;4.33;;;12.00;68.80;;;;;;5016564;28;20472;-68
2022/04/13 01:37:02;;;;;;;6.60;3.70;;;12.00;68.80;;;;;;5017161;28;20467;-68
2022/04/13 01:39:31;;;;;;;6.23;3.23;;;11.90;68.80;;;;;;5013916;28;20468;-69
2022/04/13 01:41:59;;;;;;;6.07;3.93;;;11.90;68.80;;;;;;5018050;28;20479;-68
2022/04/13 01:44:27;;;;;;;5.47;3.47;;;11.90;68.80;;;;;;5016181;28;20499;-68
2022/04/13 01:46:55;;;;;;;8.00;4.00;;;11.90;68.90;;;;;;5017992;28;20578;-69
2022/04/13 01:49:23;;;;;;;6.97;3.77;;;11.90;68.90;;;;;;5018676;28;20468;-68
2022/04/13 01:51:51;;;;;;;9.83;4.53;;;11.80;68.90;;;;;;5017001;28;20481;-69
2022/04/13 01:54:19;;;;;;;5.40;3.57;;;11.80;68.80;;;;;;5017625;28;21021;-68
2022/04/13 01:56:48;;;;;;;7.30;4.30;;;11.70;68.80;;;;;;5013514;28;20464;-68
2022/04/13 01:59:16;;;;;;;7.80;4.60;;;11.60;68.90;;;;;;5017950;28;21040;-68
2022/04/13 02:01:44;;;;;;;8.10;3.60;;;11.60;69.00;;;;;;5029745;28;20488;-69
2022/04/13 02:04:19;;;;;;;7.33;5.30;;;11.50;69.10;;;;;;5016233;28;20470;-68
2022/04/13 02:06:47;;;;;;;9.73;5.70;;;11.50;69.30;;;;;;5016676;28;20844;-68
2022/04/13 02:09:16;;;;;;;14.33;6.17;;;11.50;69.30;;;;;;5012783;28;20465;-69
2022/04/13 02:11:44;;;;;;;11.20;4.70;;;11.50;69.30;;;;;;5012049;28;20485;-68
2022/04/13 02:14:14;;;;;;;8.60;4.77;;;11.40;69.40;;;;;;5022111;28;21044;-68
2022/04/13 02:16:42;;;;;;;7.83;4.80;;;11.40;69.40;;;;;;5014929;28;21292;-69
2022/04/13 02:19:11;;;;;;;11.60;8.13;;;11.40;69.40;;;;;;5014882;28;20506;-68
2022/04/13 02:21:39;;;;;;;14.27;8.30;;;11.40;69.40;;;;;;5016322;28;20482;-68
2022/04/13 02:24:08;;;;;;;10.77;6.93;;;11.30;69.40;;;;;;5017255;28;20467;-68
2022/04/13 02:26:36;;;;;;;11.83;6.87;;;11.30;69.40;;;;;;5020128;28;20467;-68
2022/04/13 02:29:04;;;;;;;13.57;7.67;;;11.20;69.60;;;;;;5017418;28;20453;-69
2022/04/13 02:31:33;;;;;;;13.30;8.33;;;11.10;69.60;;;;;;5018751;28;20488;-69
2022/04/13 02:34:04;;;;;;;11.20;6.20;;;11.10;69.70;;;;;;5015487;28;20463;-68
2022/04/13 02:36:32;;;;;;;7.97;4.53;;;11.00;69.70;;;;;;5015618;28;21088;-68
2022/04/13 02:39:00;;;;;;;8.93;5.10;;;10.90;69.70;;;;;;5014067;28;20473;-69
2022/04/13 02:41:28;;;;;;;6.40;3.73;;;10.80;69.90;;;;;;5015972;28;20476;-68
2022/04/13 02:43:56;;;;;;;6.90;3.87;;;10.80;70.10;;;;;;5015794;28;20462;-68
2022/04/13 02:46:24;;;;;;;8.13;4.73;;;10.90;70.10;;;;;;5016308;28;20502;-68
2022/04/13 02:48:53;;;;;;;9.07;5.13;;;10.80;70.10;;;;;;5018533;28;20473;-68
2022/04/13 02:51:21;;;;;;;11.77;6.90;;;10.80;70.30;;;;;;5020349;28;20494;-68
2022/04/13 02:53:49;;;;;;;10.07;5.50;;;10.80;70.30;;;;;;5017932;28;20448;-68
2022/04/13 02:56:17;;;;;;;9.53;5.57;;;10.80;70.30;;;;;;5022072;28;20474;-68
2022/04/13 02:58:46;;;;;;;8.77;5.20;;;10.80;70.30;;;;;;5019848;28;20456;-69
2022/04/13 03:01:14;;;;;;;10.97;5.97;;;10.80;70.30;;;;;;5017177;28;20486;-69
2022/04/13 03:03:42;;;;;;;9.80;6.30;;;10.80;70.40;;;;;;5014235;28;20464;-68
2022/04/13 03:06:11;;;;;;;11.80;6.10;;;10.80;70.40;;;;;;5012966;28;20479;-69
2022/04/13 03:08:39;;;;;;;9.63;5.10;;;10.80;70.40;;;;;;5013194;28;20461;-69
2022/04/13 03:11:08;;;;;;;8.13;3.70;;;10.90;70.50;;;;;;5017659;28;20484;-69
2022/04/13 03:13:36;;;;;;;8.23;4.60;;;10.90;70.50;;;;;;5019129;28;20546;-69
2022/04/13 03:16:05;;;;;;;6.57;4.13;;;10.90;70.50;;;;;;5019744;28;20612;-68
2022/04/13 03:18:33;;;;;;;8.70;4.30;;;10.90;70.50;;;;;;5017610;28;20459;-68
2022/04/13 03:21:01;;;;;;;7.67;4.00;;;10.90;70.50;;;;;;5023018;28;20472;-68
2022/04/13 03:23:30;;;;;;;6.87;4.10;;;10.90;70.30;;;;;;5016806;28;20461;-69
2022/04/13 03:25:58;;;;;;;7.87;4.50;;;10.90;70.40;;;;;;5021466;28;20817;-69
2022/04/13 03:28:26;;;;;;;6.60;4.63;;;10.80;70.40;;;;;;5019539;28;20475;-69
2022/04/13 03:30:54;;;;;;;7.80;4.20;;;10.80;70.30;;;;;;5021024;28;20507;-68
2022/04/13 03:33:22;;;;;;;6.80;4.00;;;10.80;70.40;;;;;;5018695;28;20468;-68
2022/04/13 03:35:50;;;;;;;8.17;4.53;;;10.80;70.50;;;;;;5023734;28;20490;-68
2022/04/13 03:38:18;;;;;;;6.77;3.77;;;10.80;70.50;;;;;;5019820;28;20993;-68
2022/04/13 03:40:47;;;;;;;7.60;4.33;;;10.80;70.50;;;;;;5015155;28;20476;-69
2022/04/13 03:43:15;;;;;;;7.90;4.77;;;10.70;70.50;;;;;;5023439;28;20460;-68
2022/04/13 03:45:43;;;;;;;9.23;4.17;;;10.70;70.50;;;;;;5022475;28;20545;-69
2022/04/13 03:48:11;;;;;;;6.63;4.00;;;10.70;70.60;;;;;;5019130;28;20463;-69
2022/04/13 03:50:38;;;;;;;8.83;4.20;;;10.70;70.70;;;;;;5016854;28;20537;-68
2022/04/13 03:53:06;;;;;;;12.10;4.80;;;10.80;70.60;;;;;;5013965;28;20457;-68
2022/04/13 03:55:34;;;;;;;9.20;5.03;;;10.80;70.70;;;;;;5013774;28;20476;-69
2022/04/13 03:58:03;;;;;;;7.93;4.97;;;10.70;70.60;;;;;;5016394;28;20812;-68
2022/04/13 04:00:31;;;;;;;8.17;4.53;;;10.70;70.60;;;;;;5016651;28;20469;-68
2022/04/13 04:03:00;;;;;;;8.20;5.20;;;10.70;70.60;;;;;;5019669;28;20472;-68
2022/04/13 04:05:29;;;;;;;9.70;4.57;;;10.60;70.60;;;;;;5020253;28;21052;-68
2022/04/13 04:07:57;;;;;;;9.87;5.00;;;10.60;70.60;;;;;;5024089;28;20494;-69
2022/04/13 04:10:25;;;;;;;7.60;4.57;;;10.60;70.80;;;;;;5026495;28;20463;-68
2022/04/13 04:12:55;;;;;;;6.60;3.80;;;10.50;70.70;;;;;;5024217;28;20460;-69
2022/04/13 04:15:25;;;;;;;6.90;4.27;;;10.50;70.80;;;;;;5021720;28;20468;-68
2022/04/13 04:17:53;;;;;;;9.33;5.00;;;10.40;70.80;;;;;;5018437;28;21080;-68
2022/04/13 04:20:21;;;;;;;9.73;4.87;;;10.40;70.90;;;;;;5018368;28;20583;-69
2022/04/13 04:22:49;;;;;;;6.97;4.70;;;10.40;71.00;;;;;;5019891;28;20461;-68
2022/04/13 04:25:17;;;;;;;9.77;5.00;;;10.40;71.00;;;;;;5017535;28;20877;-68
2022/04/13 04:27:45;;;;;;;7.30;4.40;;;10.40;70.90;;;;;;5018829;28;20453;-68
2022/04/13 04:30:12;;;;;;;9.07;4.87;;;10.40;70.90;;;;;;5015657;28;21313;-68
2022/04/13 04:32:42;;;;;;;14.77;5.27;;;10.40;71.10;;;;;;5015872;28;20475;-68
2022/04/13 04:35:11;;;;;;;8.80;5.50;;;10.40;71.10;;;;;;5025447;28;20474;-68
2022/04/13 04:37:39;;;;;;;7.13;4.70;;;10.30;71.00;;;;;;5017610;28;20480;-69
2022/04/13 04:40:08;;;;;;;7.40;3.87;;;10.20;71.00;;;;;;5020809;28;20467;-69
2022/04/13 04:42:45;;;;;;;6.97;3.80;;;10.20;71.10;;;;;;5024375;28;20488;-68
2022/04/13 04:45:13;;;;;;;9.43;4.03;;;10.10;71.10;;;;;;5018550;28;20489;-68
2022/04/13 04:47:47;;;;;;;11.23;4.23;;;10.10;71.20;;;;;;5019754;28;21365;-68
2022/04/13 04:50:15;;;;;;;9.77;4.70;;;10.10;71.30;;;;;;5019096;28;20563;-68
2022/04/13 04:52:44;;;;;;;9.03;4.87;;;10.10;71.30;;;;;;5019447;28;20958;-69
2022/04/13 04:55:13;;;;;;;10.10;5.23;;;10.10;71.40;;;;;;5017723;28;20459;-69
2022/04/13 04:57:41;;;;;;;8.10;5.17;;;10.00;71.30;;;;;;5015428;28;20864;-68
2022/04/13 05:00:12;;;;;;;11.17;5.17;;;10.00;71.50;;;;;;5016844;28;20472;-68
2022/04/13 05:02:40;;;;;;;10.70;5.03;;;10.00;71.60;;;;;;5019546;28;20567;-68
2022/04/13 05:05:10;;;;;;;9.97;5.23;;;10.00;71.50;;;;;;5017892;28;20459;-69
2022/04/13 05:07:38;;;;;;;10.50;5.87;;;10.00;71.40;;;;;;5015561;28;20930;-67
2022/04/13 05:10:07;;;;;;;7.10;4.30;;;10.00;71.50;;;;;;5013759;28;21049;-69
2022/04/13 05:12:42;;;;;;;16.70;5.30;;;10.00;71.50;;;;;;5016378;28;20485;-67
2022/04/13 05:15:11;;;;;;;9.40;6.23;;;10.00;71.60;;;;;;5017196;28;20970;-68
2022/04/13 05:17:39;;;;;;;19.37;7.67;;;10.10;71.70;;;;;;5016724;28;20476;-69
2022/04/13 05:20:10;;;;;;;11.10;5.10;;;10.20;71.80;;;;;;5017107;28;20988;-69
2022/04/13 05:22:38;;;;;;;11.53;5.67;;;10.20;72.00;;;;;;5014790;28;20494;-68
2022/04/13 05:25:08;;;;;;;14.10;6.03;;;10.40;72.00;;;;;;5012598;28;20972;-69
2022/04/13 05:27:36;;;;;;;12.23;6.47;;;10.60;72.00;;;;;;5018145;28;20463;-68
2022/04/13 05:30:05;;;;;;;14.63;8.10;;;10.70;71.80;;;;;;5013314;28;20449;-68
2022/04/13 05:32:46;;;;;;;10.53;6.87;;;10.70;71.80;;;;;;5020879;28;21041;-69
2022/04/13 05:35:15;;;;;;;11.33;6.67;;;10.80;71.70;;;;;;5022650;28;20448;-69
2022/04/13 05:37:43;;;;;;;31.97;10.63;;;11.00;71.80;;;;;;5023712;28;20499;-69
2022/04/13 05:40:13;;;;;;;22.53;11.03;;;11.10;71.90;;;;;;5018247;28;20471;-69
2022/04/13 05:42:41;;;;;;;18.87;10.27;;;11.30;72.20;;;;;;5017733;28;20494;-70
2022/04/13 05:45:10;;;;;;;27.70;16.97;;;11.60;71.70;;;;;;5015863;28;20467;-70
2022/04/13 05:47:38;;;;;;;16.60;10.17;;;11.70;71.00;;;;;;5018878;28;20456;-70
2022/04/13 05:50:07;;;;;;;11.03;7.70;;;11.60;70.70;;;;;;5017588;28;20460;-70
2022/04/13 05:52:37;;;;;;;16.13;7.83;;;11.60;70.70;;;;;;5014660;28;20479;-70
2022/04/13 05:55:05;;;;;;;13.30;7.20;;;11.60;70.60;;;;;;5021496;28;20861;-69
2022/04/13 05:57:33;;;;;;;12.20;7.53;;;11.50;70.60;;;;;;5015497;28;20472;-69
2022/04/13 06:00:01;;;;;;;161.43;92.93;;;11.50;70.60;;;;;;5014205;28;20449;-68
2022/04/13 06:02:31;;;;;;;102.63;57.40;;;11.50;70.60;;;;;;5014219;28;20465;-69
2022/04/13 06:05:00;;;;;;;39.03;24.20;;;11.50;70.60;;;;;;5016407;28;20497;-70
2022/04/13 06:07:27;;;;;;;29.00;18.40;;;11.50;70.60;;;;;;5019121;28;20463;-70
2022/04/13 06:10:01;;;;;;;19.63;11.00;;;11.50;70.70;;;;;;5017526;28;20458;-71
2022/04/13 06:12:29;;;;;;;17.80;12.97;;;11.50;70.80;;;;;;5015812;28;20500;-71
2022/04/13 06:15:02;;;;;;;16.33;10.47;;;11.50;70.80;;;;;;5016456;28;20475;-70
2022/04/13 06:17:30;;;;;;;16.00;10.43;;;11.60;70.90;;;;;;5007407;28;20468;-72
2022/04/13 06:19:58;;;;;;;16.60;10.87;;;11.60;70.90;;;;;;5018298;28;20452;-72
2022/04/13 06:22:26;;;;;;;14.17;8.67;;;11.60;70.90;;;;;;5015450;28;21075;-71
2022/04/13 06:24:54;;;;;;;16.57;8.57;;;11.60;71.00;;;;;;5017090;28;20529;-71
2022/04/13 06:27:23;;;;;;;14.83;9.87;;;11.60;71.00;;;;;;5016243;28;20452;-70
2022/04/13 06:29:52;;;;;;;15.03;9.50;;;11.70;71.10;;;;;;5016676;28;21046;-70
2022/04/13 06:32:20;;;;;;;16.13;9.00;;;11.70;71.10;;;;;;5009432;28;21069;-70
2022/04/13 06:34:48;;;;;;;13.00;8.33;;;11.80;71.20;;;;;;5010080;28;20457;-70
2022/04/13 06:37:16;;;;;;;11.97;8.27;;;11.80;71.20;;;;;;5016576;28;20482;-70
2022/04/13 06:39:44;;;;;;;12.47;8.47;;;11.90;71.30;;;;;;5018412;28;20468;-70
2022/04/13 06:42:12;;;;;;;11.30;7.10;;;11.90;71.30;;;;;;5022594;28;20485;-70
2022/04/13 06:44:41;;;;;;;13.70;8.43;;;12.00;71.30;;;;;;5018925;28;20522;-70
2022/04/13 06:47:09;;;;;;;12.30;7.60;;;12.10;71.30;;;;;;5018391;28;21141;-70
2022/04/13 06:49:39;;;;;;;14.10;7.20;;;12.10;71.30;;;;;;5013004;28;20945;-71
2022/04/13 06:52:07;;;;;;;18.27;7.60;;;12.20;71.20;;;;;;5021283;28;20533;-70
2022/04/13 06:54:35;;;;;;;12.23;5.93;;;12.30;71.20;;;;;;5025609;28;21315;-71
2022/04/13 06:57:03;;;;;;;11.80;6.03;;;12.30;70.90;;;;;;5020814;28;20449;-72
2022/04/13 06:59:31;;;;;;;16.00;5.80;;;12.40;70.70;;;;;;5019890;28;20456;-71
2022/04/13 07:02:00;;;;;;;12.17;6.10;;;12.40;70.10;;;;;;5020185;28;20550;-71
2022/04/13 07:04:28;;;;;;;12.77;5.47;;;12.40;70.20;;;;;;5017947;28;20886;-71
2022/04/13 07:06:56;;;;;;;16.33;5.50;;;12.40;70.20;;;;;;5020222;28;20456;-71
2022/04/13 07:09:24;;;;;;;11.40;5.43;;;12.50;70.10;;;;;;5017219;28;20452;-72
2022/04/13 07:11:52;;;;;;;10.03;5.23;;;12.50;70.10;;;;;;5018761;28;20978;-71
2022/04/13 07:14:20;;;;;;;15.10;6.03;;;12.60;70.00;;;;;;5022887;28;21249;-71
2022/04/13 07:16:48;;;;;;;17.73;5.90;;;12.70;69.80;;;;;;5017275;28;20483;-71
2022/04/13 07:19:18;;;;;;;14.90;6.40;;;12.70;69.80;;;;;;5022342;28;20568;-71
2022/04/13 07:21:46;;;;;;;12.20;6.67;;;12.80;69.70;;;;;;5021411;28;21254;-71
2022/04/13 07:24:34;;;;;;;10.53;6.37;;;12.90;69.70;;;;;;5023821;28;20468;-71
2022/04/13 07:27:02;;;;;;;17.07;5.73;;;12.90;69.60;;;;;;5017918;28;20460;-72
2022/04/13 07:29:30;;;;;;;13.60;5.13;;;13.00;69.50;;;;;;5015119;28;20457;-70
2022/04/13 07:31:58;;;;;;;10.50;5.90;;;13.10;69.30;;;;;;5015575;28;21123;-70
2022/04/13 07:34:27;;;;;;;10.30;6.30;;;13.20;69.20;;;;;;5017728;28;20452;-71
2022/04/13 07:36:55;;;;;;;9.80;5.90;;;13.20;68.80;;;;;;5020255;28;20475;-70
2022/04/13 07:39:23;;;;;;;15.37;5.50;;;13.30;68.70;;;;;;5018081;28;20487;-70
2022/04/13 07:41:51;;;;;;;15.87;5.40;;;13.40;68.60;;;;;;5017528;28;20487;-71
2022/04/13 07:44:19;;;;;;;10.50;6.47;;;13.40;68.20;;;;;;5017622;28;20440;-70
2022/04/13 07:46:47;;;;;;;10.87;6.13;;;13.50;68.20;;;;;;5017878;28;20685;-70
2022/04/13 07:49:16;;;;;;;12.80;5.73;;;13.50;67.80;;;;;;5019277;28;20832;-70
2022/04/13 07:51:45;;;;;;;10.93;6.20;;;13.60;67.80;;;;;;5019996;28;20538;-71
2022/04/13 07:54:13;;;;;;;8.50;5.40;;;13.70;67.50;;;;;;5022550;28;20459;-71
2022/04/13 07:57:01;;;;;;;10.80;5.80;;;13.70;67.40;;;;;;5017204;28;20457;-71
2022/04/13 07:59:29;;;;;;;11.00;7.30;;;13.80;67.20;;;;;;5018903;28;20473;-71
2022/04/13 08:01:57;;;;;;;15.20;6.10;;;13.80;67.00;;;;;;5016264;28;21255;-71
2022/04/13 08:04:25;;;;;;;14.30;7.73;;;13.90;66.80;;;;;;5018161;28;20535;-71
2022/04/13 08:06:57;;;;;;;13.83;7.70;;;14.00;66.50;;;;;;5016814;28;20564;-71
2022/04/13 08:09:24;;;;;;;14.10;7.47;;;14.00;66.20;;;;;;5015126;28;21211;-71
2022/04/13 08:11:53;;;;;;;21.43;9.60;;;14.00;66.30;;;;;;5018523;28;20503;-71
2022/04/13 08:14:21;;;;;;;12.23;7.13;;;14.10;66.20;;;;;;5017530;28;20452;-71
2022/04/13 08:16:49;;;;;;;11.97;7.33;;;14.20;66.00;;;;;;5018008;28;20477;-71
2022/04/13 08:19:17;;;;;;;16.13;10.07;;;14.30;65.70;;;;;;5023056;28;20479;-71
2022/04/13 08:21:46;;;;;;;15.50;8.80;;;14.30;65.50;;;;;;5020200;28;20567;-71
2022/04/13 08:24:17;;;;;;;16.53;7.33;;;14.40;65.40;;;;;;5020923;28;20651;-71
2022/04/13 08:26:45;;;;;;;14.63;7.23;;;14.40;65.20;;;;;;5016831;28;20484;-70
2022/04/13 08:29:13;;;;;;;9.90;5.63;;;14.50;65.20;;;;;;5018383;28;20456;-70
2022/04/13 08:31:41;;;;;;;13.40;7.43;;;14.60;65.10;;;;;;5014514;28;20530;-71
2022/04/13 08:34:09;;;;;;;18.63;7.13;;;14.70;65.20;;;;;;5013737;28;20467;-70
2022/04/13 08:36:37;;;;;;;19.13;12.20;;;14.80;65.00;;;;;;5017069;28;20467;-71
2022/04/13 08:39:13;;;;;;;14.63;7.00;;;14.80;64.80;;;;;;5019229;28;20500;-71
2022/04/13 08:41:49;;;;;;;14.80;7.10;;;14.90;64.80;;;;;;5017818;28;20530;-71
2022/04/13 08:44:18;;;;;;;13.03;7.03;;;14.90;64.50;;;;;;5021149;28;20517;-71
2022/04/13 08:46:47;;;;;;;10.90;6.10;;;14.90;64.40;;;;;;5019721;28;20475;-70
2022/04/13 08:49:16;;;;;;;15.03;6.80;;;15.00;64.40;;;;;;5012816;28;20989;-70
2022/04/13 08:52:03;;;;;;;14.63;6.80;;;15.10;64.30;;;;;;5020070;28;20476;-71
2022/04/13 08:54:35;;;;;;;9.13;5.53;;;15.10;64.20;;;;;;5029259;28;20455;-70
2022/04/13 08:57:08;;;;;;;9.80;5.97;;;15.20;64.10;;;;;;5027131;28;20986;-70
2022/04/13 09:00:02;;;;;;;13.60;5.67;;;15.30;64.00;;;;;;5021518;28;20527;-71
2022/04/13 09:02:43;;;;;;;10.83;6.13;;;15.30;63.90;;;;;;5014614;28;20492;-71
2022/04/13 09:05:14;;;;;;;8.80;5.90;;;15.40;63.80;;;;;;5015791;28;20479;-71
2022/04/13 09:07:43;;;;;;;15.20;7.07;;;15.40;63.80;;;;;;5016777;28;20791;-70
2022/04/13 09:10:23;;;;;;;13.50;6.20;;;15.50;63.90;;;;;;5020483;28;20455;-71
2022/04/13 09:12:53;;;;;;;14.50;6.67;;;15.50;63.60;;;;;;5018195;28;20482;-71
2022/04/13 09:15:21;;;;;;;13.43;6.40;;;15.60;63.70;;;;;;5023270;28;20440;-70
2022/04/13 09:17:50;;;;;;;12.00;6.70;;;15.70;63.50;;;;;;5016382;28;20472;-71
2022/04/13 09:20:18;;;;;;;15.63;6.90;;;15.70;63.50;;;;;;5015688;28;20472;-71
2022/04/13 09:22:48;;;;;;;13.97;6.90;;;15.70;63.40;;;;;;5019387;28;20456;-70
2022/04/13 09:25:16;;;;;;;14.70;7.07;;;15.70;63.40;;;;;;5017583;28;20454;-71
2022/04/13 09:27:44;;;;;;;11.93;6.40;;;15.80;63.50;;;;;;5017936;28;20457;-70
2022/04/13 09:30:14;;;;;;;12.97;7.50;;;15.80;63.60;;;;;;5018408;28;20447;-70
2022/04/13 09:32:43;;;;;;;17.13;7.00;;;15.90;63.60;;;;;;5022664;28;21422;-70
2022/04/13 09:35:11;;;;;;;15.60;7.60;;;16.00;63.60;;;;;;5019110;28;20483;-72
2022/04/13 09:37:40;;;;;;;13.23;6.87;;;16.10;63.60;;;;;;5017292;28;20456;-71
2022/04/13 09:40:09;;;;;;;12.50;6.17;;;16.20;63.50;;;;;;5022518;28;21003;-71
2022/04/13 09:42:37;;;;;;;13.80;7.50;;;16.20;63.50;;;;;;5020086;28;20611;-70
2022/04/13 09:45:06;;;;;;;18.00;8.20;;;16.30;63.40;;;;;;5019896;28;20456;-70
2022/04/13 09:47:35;;;;;;;13.03;7.97;;;16.40;63.40;;;;;;5015077;28;20534;-71
2022/04/13 09:50:04;;;;;;;12.43;7.30;;;16.40;63.30;;;;;;5017161;28;20467;-71
2022/04/13 09:52:33;;;;;;;14.43;7.73;;;16.50;63.30;;;;;;5016809;28;20548;-70
2022/04/13 09:55:05;;;;;;;12.50;7.17;;;16.60;63.10;;;;;;5018814;28;20459;-70
2022/04/13 09:57:33;;;;;;;13.87;8.20;;;16.60;63.10;;;;;;5012562;28;20449;-71
2022/04/13 10:00:04;;;;;;;14.97;8.70;;;16.70;63.00;;;;;;5017937;28;20469;-72
2022/04/13 10:02:41;;;;;;;18.00;7.80;;;16.80;63.00;;;;;;5016903;28;20463;-71
2022/04/13 10:05:20;;;;;;;17.00;8.57;;;16.80;63.00;;;;;;5021267;28;20493;-71
2022/04/13 10:08:02;;;;;;;16.70;8.47;;;16.90;62.90;;;;;;5018493;28;20460;-71
2022/04/13 10:10:31;;;;;;;20.07;8.87;;;16.90;62.70;;;;;;5018195;28;20484;-70
2022/04/13 10:13:06;;;;;;;15.37;7.60;;;16.90;62.70;;;;;;5022525;28;20983;-71
2022/04/13 10:15:34;;;;;;;13.80;7.87;;;16.90;62.80;;;;;;5017530;28;20993;-71
2022/04/13 10:18:05;;;;;;;14.43;7.23;;;16.90;62.90;;;;;;5015092;28;20448;-71
2022/04/13 10:20:44;;;;;;;15.13;7.60;;;16.80;62.90;;;;;;5016166;28;20474;-70
2022/04/13 10:23:13;;;;;;;14.60;7.40;;;16.80;62.80;;;;;;5020445;28;20463;-71
2022/04/13 10:25:41;;;;;;;12.90;7.77;;;16.90;63.00;;;;;;5020717;28;20491;-72
2022/04/13 10:28:12;;;;;;;15.07;7.63;;;16.90;63.00;;;;;;5019767;28;20490;-71
2022/04/13 10:30:42;;;;;;;14.60;7.93;;;16.90;63.10;;;;;;5016437;28;20468;-71
2022/04/13 10:33:13;;;;;;;13.23;7.03;;;16.90;63.10;;;;;;5022662;28;20443;-71
2022/04/13 10:35:42;;;;;;;12.43;6.80;;;17.00;63.40;;;;;;5017259;28;20460;-70
2022/04/13 10:38:12;;;;;;;13.17;7.63;;;17.00;63.20;;;;;;5027697;28;20455;-71
2022/04/13 10:40:42;;;;;;;15.40;7.53;;;17.10;63.20;;;;;;5023506;28;20482;-71
2022/04/13 10:43:11;;;;;;;17.40;7.80;;;17.10;63.60;;;;;;5022006;28;20452;-71
2022/04/13 10:45:41;;;;;;;15.50;8.10;;;17.10;63.70;;;;;;5019021;28;21330;-71
2022/04/13 10:48:12;;;;;;;15.30;8.03;;;17.20;63.90;;;;;;5022151;28;20964;-70
2022/04/13 10:50:49;;;;;;;15.73;8.00;;;17.20;63.90;;;;;;5019692;28;20462;-70
2022/04/13 10:53:21;;;;;;;13.70;7.23;;;17.20;63.90;;;;;;5017493;28;20541;-70
2022/04/13 10:55:58;;;;;;;12.27;7.77;;;17.30;64.10;;;;;;5019080;28;20459;-70
2022/04/13 10:58:37;;;;;;;11.83;7.40;;;17.30;64.00;;;;;;5021622;28;20501;-70
2022/04/13 11:01:09;;;;;;;19.93;8.17;;;17.30;63.30;;;;;;5013269;28;20499;-70
2022/04/13 11:03:39;;;;;;;15.77;8.63;;;17.40;63.60;;;;;;5014706;28;20456;-71
2022/04/13 11:06:08;;;;;;;15.67;8.63;;;17.40;63.30;;;;;;5025418;28;20456;-71
2022/04/13 11:08:44;;;;;;;14.43;8.70;;;17.50;63.30;;;;;;5018336;28;21035;-70
2022/04/13 11:11:17;;;;;;;17.60;8.13;;;17.50;62.80;;;;;;5016597;28;20468;-71
2022/04/13 11:13:47;;;;;;;22.13;8.90;;;17.50;62.90;;;;;;5013016;28;20448;-70
2022/04/13 11:16:18;;;;;;;15.10;7.80;;;17.60;62.80;;;;;;5016973;28;21216;-70
2022/04/13 11:19:20;;;;;;;15.23;8.20;;;17.60;63.00;;;;;;5018229;28;20531;-71
2022/04/13 11:22:09;;;;;;;18.53;8.73;;;17.60;63.40;;;;;;5015733;28;20486;-71
2022/04/13 11:24:39;;;;;;;20.80;8.30;;;17.70;63.20;;;;;;5015932;28;20460;-71
2022/04/13 11:27:09;;;;;;;26.50;9.57;;;17.80;63.10;;;;;;5018135;28;20460;-69
2022/04/13 11:29:43;;;;;;;17.17;8.80;;;17.80;62.80;;;;;;5015520;28;20530;-71
2022/04/13 11:32:15;;;;;;;21.63;8.93;;;17.80;62.60;;;;;;5020255;28;20487;-70
2022/04/13 11:34:48;;;;;;;16.97;8.53;;;17.90;62.60;;;;;;5017369;28;20486;-70
2022/04/13 11:37:17;;;;;;;17.93;8.80;;;17.90;62.40;;;;;;5018118;28;20953;-69
2022/04/13 11:39:50;;;;;;;17.07;8.60;;;18.00;62.30;;;;;;5021009;28;20468;-70
2022/04/13 11:42:49;;;;;;;14.70;8.37;;;18.00;62.30;;;;;;5016873;28;20530;-70
2022/04/13 11:45:18;;;;;;;16.60;8.90;;;18.10;62.20;;;;;;5019136;28;21113;-70
2022/04/13 11:47:54;;;;;;;16.53;8.30;;;18.10;62.00;;;;;;5017302;28;20473;-71
2022/04/13 11:50:24;;;;;;;18.17;9.07;;;18.10;61.80;;;;;;5017766;28;20454;-71
2022/04/13 11:52:54;;;;;;;18.23;8.37;;;18.20;61.80;;;;;;5017823;28;20453;-70
2022/04/13 11:55:24;;;;;;;20.43;8.93;;;18.20;61.70;;;;;;5019680;28;20457;-70
2022/04/13 11:58:07;;;;;;;15.97;8.03;;;18.20;61.70;;;;;;5018129;28;20475;-70
2022/04/13 12:00:41;;;;;;;30.00;8.60;;;18.30;61.60;;;;;;5009443;28;20480;-70
2022/04/13 12:03:11;;;;;;;17.03;8.97;;;18.40;61.50;;;;;;5016257;28;20475;-70
2022/04/13 12:05:43;;;;;;;17.03;8.40;;;18.40;61.20;;;;;;5016539;28;20448;-72
2022/04/13 12:08:12;;;;;;;15.23;8.43;;;18.40;61.00;;;;;;5017017;28;20459;-71
2022/04/13 12:10:46;;;;;;;19.93;8.77;;;18.50;60.90;;;;;;5015389;28;20449;-71
2022/04/13 12:13:14;;;;;;;18.50;8.60;;;18.50;60.70;;;;;;5026381;28;20451;-69
2022/04/13 12:15:47;;;;;;;20.40;9.37;;;18.60;60.50;;;;;;5015972;28;20491;-70
2022/04/13 12:18:15;;;;;;;17.47;8.70;;;18.60;60.30;;;;;;5015935;28;20878;-71
2022/04/13 12:20:47;;;;;;;22.57;9.20;;;18.60;60.10;;;;;;5013836;28;20491;-70
2022/04/13 12:23:26;;;;;;;20.87;9.83;;;18.70;60.10;;;;;;5018898;28;20447;-70
2022/04/13 12:25:56;;;;;;;19.50;8.87;;;18.80;60.00;;;;;;5019382;28;20467;-70
2022/04/13 12:28:25;;;;;;;19.60;8.60;;;18.90;59.90;;;;;;5021764;28;20991;-71
2022/04/13 12:30:57;;;;;;;16.67;8.50;;;18.90;59.70;;;;;;5015576;28;20484;-71
2022/04/13 12:33:27;;;;;;;22.97;9.13;;;19.00;59.60;;;;;;5012821;28;20500;-70
2022/04/13 12:35:58;;;;;;;13.90;7.20;;;19.10;59.30;;;;;;5013495;28;20465;-70
2022/04/13 12:38:31;;;;;;;18.90;9.83;;;19.10;59.30;;;;;;5017925;28;20463;-70
2022/04/13 12:41:08;;;;;;;19.10;9.17;;;19.10;59.30;;;;;;5018182;28;21245;-71
2022/04/13 12:43:37;;;;;;;25.37;8.83;;;19.10;59.30;;;;;;5015960;28;20452;-70
2022/04/13 12:46:10;;;;;;;18.93;9.00;;;19.20;59.10;;;;;;5017180;28;20486;-70
2022/04/13 12:48:40;;;;;;;15.67;8.73;;;19.20;59.10;;;;;;5016999;28;20499;-70
2022/04/13 12:51:10;;;;;;;17.90;9.10;;;19.30;58.80;;;;;;5018461;28;20564;-71
2022/04/13 12:53:50;;;;;;;16.10;9.03;;;19.30;58.70;;;;;;5013754;28;21028;-71